sensor_id;sensor_type;location;lat;lon;timestamp;pressure;altitude;pressure_sealevel;temperature;humidity
39363;BME280;25088;43.238;23.110;2024-01-16T00:01:17;94799.75;;;9.17;68.93
39363;BME280;25088;43.238;23.110;2024-01-16T00:03:43;94827.03;;;9.12;67.03
39363;BME280;25088;43.238;23.110;2024-01-16T00:06:09;94799.53;;;9.13;67.66
39363;BME280;25088;43.238;23.110;2024-01-16T00:08:35;94801.06;;;9.19;65.76
39363;BME280;25088;43.238;23.110;2024-01-16T00:11:02;94792.28;;;9.03;65.92
39363;BME280;25088;43.238;23.110;2024-01-16T00:13:28;94816.50;;;9.29;66.47
39363;BME280;25088;43.238;23.110;2024-01-16T00:15:53;94810.13;;;9.39;64.31
39363;BME280;25088;43.238;23.110;2024-01-16T00:18:18;94817.31;;;9.53;63.01
39363;BME280;25088;43.238;23.110;2024-01-16T00:20:44;94822.75;;;9.53;62.79
39363;BME280;25088;43.238;23.110;2024-01-16T00:23:10;94841.19;;;9.62;63.08
39363;BME280;25088;43.238;23.110;2024-01-16T00:25:35;94836.88;;;9.79;62.79
39363;BME280;25088;43.238;23.110;2024-01-16T00:28:01;94829.81;;;9.78;61.69
39363;BME280;25088;43.238;23.110;2024-01-16T00:30:27;94844.16;;;9.65;62.11
39363;BME280;25088;43.238;23.110;2024-01-16T00:32:52;94847.38;;;9.67;62.30
39363;BME280;25088;43.238;23.110;2024-01-16T00:35:18;94844.91;;;9.71;61.46
39363;BME280;25088;43.238;23.110;2024-01-16T00:37:44;94816.09;;;9.41;61.52
39363;BME280;25088;43.238;23.110;2024-01-16T00:40:09;94837.47;;;9.76;60.39
39363;BME280;25088;43.238;23.110;2024-01-16T00:42:35;94855.91;;;9.84;59.56
39363;BME280;25088;43.238;23.110;2024-01-16T00:45:01;94861.41;;;9.79;60.78
39363;BME280;25088;43.238;23.110;2024-01-16T00:47:26;94854.25;;;9.83;61.80
39363;BME280;25088;43.238;23.110;2024-01-16T00:49:52;94861.94;;;9.81;62.58
39363;BME280;25088;43.238;23.110;2024-01-16T00:52:18;94874.25;;;9.98;62.74
39363;BME280;25088;43.238;23.110;2024-01-16T00:54:43;94877.78;;;9.98;61.71
39363;BME280;25088;43.238;23.110;2024-01-16T00:57:09;94892.63;;;10.11;60.48
39363;BME280;25088;43.238;23.110;2024-01-16T00:59:34;94900.19;;;9.95;61.10
39363;BME280;25088;43.238;23.110;2024-01-16T01:02:00;94907.09;;;9.88;60.64
39363;BME280;25088;43.238;23.110;2024-01-16T01:04:25;94921.59;;;10.07;59.49
39363;BME280;25088;43.238;23.110;2024-01-16T01:06:51;94914.78;;;10.28;59.25
39363;BME280;25088;43.238;23.110;2024-01-16T01:09:17;94923.28;;;10.46;58.16
39363;BME280;25088;43.238;23.110;2024-01-16T01:11:42;94932.53;;;10.50;58.29
39363;BME280;25088;43.238;23.110;2024-01-16T01:14:08;94939.06;;;10.68;56.62
39363;BME280;25088;43.238;23.110;2024-01-16T01:16:33;94933.22;;;10.13;55.50
39363;BME280;25088;43.238;23.110;2024-01-16T01:18:59;94995.00;;;9.11;57.29
39363;BME280;25088;43.238;23.110;2024-01-16T01:21:24;95037.09;;;8.15;58.67
39363;BME280;25088;43.238;23.110;2024-01-16T01:23:50;95079.78;;;6.71;62.01
39363;BME280;25088;43.238;23.110;2024-01-16T01:26:16;95100.78;;;6.39;64.07
39363;BME280;25088;43.238;23.110;2024-01-16T01:28:43;95111.97;;;6.00;66.22
39363;BME280;25088;43.238;23.110;2024-01-16T01:31:10;95134.13;;;5.60;67.99
39363;BME280;25088;43.238;23.110;2024-01-16T01:33:36;95129.53;;;5.28;69.32
39363;BME280;25088;43.238;23.110;2024-01-16T01:36:02;95157.66;;;5.27;69.87
39363;BME280;25088;43.238;23.110;2024-01-16T01:38:27;95180.03;;;5.17;70.97
39363;BME280;25088;43.238;23.110;2024-01-16T01:40:53;95197.56;;;5.15;71.28
39363;BME280;25088;43.238;23.110;2024-01-16T01:43:22;95214.25;;;4.85;74.00
39363;BME280;25088;43.238;23.110;2024-01-16T01:46:06;95200.38;;;4.54;75.20
39363;BME280;25088;43.238;23.110;2024-01-16T01:48:33;95238.09;;;4.66;76.07
39363;BME280;25088;43.238;23.110;2024-01-16T01:51:00;95246.25;;;4.71;76.34
39363;BME280;25088;43.238;23.110;2024-01-16T01:53:27;95252.47;;;4.72;76.58
39363;BME280;25088;43.238;23.110;2024-01-16T01:55:54;95252.03;;;4.58;76.92
39363;BME280;25088;43.238;23.110;2024-01-16T01:58:20;95224.47;;;4.39;76.50
39363;BME280;25088;43.238;23.110;2024-01-16T02:00:46;95289.16;;;4.62;77.26
39363;BME280;25088;43.238;23.110;2024-01-16T02:03:12;95280.94;;;4.57;77.38
39363;BME280;25088;43.238;23.110;2024-01-16T02:05:38;95299.44;;;4.65;77.54
39363;BME280;25088;43.238;23.110;2024-01-16T02:08:04;95286.38;;;4.79;76.43
39363;BME280;25088;43.238;23.110;2024-01-16T02:10:31;95249.50;;;4.51;76.10
39363;BME280;25088;43.238;23.110;2024-01-16T02:12:57;95306.19;;;4.85;76.13
39363;BME280;25088;43.238;23.110;2024-01-16T02:15:26;95316.69;;;4.81;76.55
39363;BME280;25088;43.238;23.110;2024-01-16T02:17:51;95325.19;;;4.90;77.11
39363;BME280;25088;43.238;23.110;2024-01-16T02:20:17;95305.94;;;4.86;76.63
39363;BME280;25088;43.238;23.110;2024-01-16T02:22:45;95307.59;;;5.09;76.16
39363;BME280;25088;43.238;23.110;2024-01-16T02:25:13;95276.03;;;4.93;75.97
39363;BME280;25088;43.238;23.110;2024-01-16T02:27:38;95277.47;;;5.01;75.47
39363;BME280;25088;43.238;23.110;2024-01-16T02:30:04;95328.25;;;5.37;75.37
39363;BME280;25088;43.238;23.110;2024-01-16T02:32:31;95327.47;;;5.42;74.73
39363;BME280;25088;43.238;23.110;2024-01-16T02:34:57;95333.97;;;5.41;75.20
39363;BME280;25088;43.238;23.110;2024-01-16T02:37:22;95350.84;;;5.48;74.54
39363;BME280;25088;43.238;23.110;2024-01-16T02:39:48;95352.22;;;5.51;74.48
39363;BME280;25088;43.238;23.110;2024-01-16T02:42:13;95360.34;;;5.51;74.49
39363;BME280;25088;43.238;23.110;2024-01-16T02:44:40;95370.09;;;5.52;74.61
39363;BME280;25088;43.238;23.110;2024-01-16T02:47:05;95377.28;;;5.41;74.84
39363;BME280;25088;43.238;23.110;2024-01-16T02:49:32;95380.84;;;5.25;75.75
39363;BME280;25088;43.238;23.110;2024-01-16T02:51:58;95376.94;;;5.15;76.20
39363;BME280;25088;43.238;23.110;2024-01-16T02:54:24;95396.91;;;5.31;76.42
39363;BME280;25088;43.238;23.110;2024-01-16T02:56:49;95412.03;;;5.27;77.42
39363;BME280;25088;43.238;23.110;2024-01-16T02:59:15;95415.22;;;5.24;77.71
39363;BME280;25088;43.238;23.110;2024-01-16T03:01:40;95414.47;;;5.12;79.13
39363;BME280;25088;43.238;23.110;2024-01-16T03:04:06;95407.72;;;4.92;79.28
39363;BME280;25088;43.238;23.110;2024-01-16T03:06:31;95422.06;;;4.93;79.80
39363;BME280;25088;43.238;23.110;2024-01-16T03:08:57;95444.00;;;5.13;79.29
39363;BME280;25088;43.238;23.110;2024-01-16T03:11:22;95444.75;;;5.09;78.87
39363;BME280;25088;43.238;23.110;2024-01-16T03:13:48;95443.41;;;5.11;78.75
39363;BME280;25088;43.238;23.110;2024-01-16T03:16:14;95439.75;;;5.01;78.88
39363;BME280;25088;43.238;23.110;2024-01-16T03:18:41;95449.91;;;5.10;78.21
39363;BME280;25088;43.238;23.110;2024-01-16T03:21:06;95455.91;;;4.96;79.51
39363;BME280;25088;43.238;23.110;2024-01-16T03:23:32;95445.50;;;4.71;80.68
39363;BME280;25088;43.238;23.110;2024-01-16T03:25:58;95451.47;;;4.39;82.53
39363;BME280;25088;43.238;23.110;2024-01-16T03:28:24;95471.53;;;4.43;83.80
39363;BME280;25088;43.238;23.110;2024-01-16T03:30:49;95482.72;;;4.35;85.50
39363;BME280;25088;43.238;23.110;2024-01-16T03:33:14;95479.63;;;4.14;86.28
39363;BME280;25088;43.238;23.110;2024-01-16T03:35:40;95481.22;;;3.99;88.44
39363;BME280;25088;43.238;23.110;2024-01-16T03:38:05;95493.88;;;4.10;88.28
39363;BME280;25088;43.238;23.110;2024-01-16T03:40:31;95475.69;;;4.05;88.45
39363;BME280;25088;43.238;23.110;2024-01-16T03:43:00;95503.22;;;4.19;88.41
39363;BME280;25088;43.238;23.110;2024-01-16T03:45:25;95478.47;;;4.10;87.98
39363;BME280;25088;43.238;23.110;2024-01-16T03:47:51;95497.56;;;4.21;88.32
39363;BME280;25088;43.238;23.110;2024-01-16T03:50:16;95481.22;;;3.99;88.54
39363;BME280;25088;43.238;23.110;2024-01-16T03:52:42;95506.66;;;4.14;89.21
39363;BME280;25088;43.238;23.110;2024-01-16T03:55:07;95517.31;;;4.21;89.79
39363;BME280;25088;43.238;23.110;2024-01-16T03:57:33;95516.63;;;4.14;89.14
39363;BME280;25088;43.238;23.110;2024-01-16T03:59:58;95498.06;;;4.18;88.73
39363;BME280;25088;43.238;23.110;2024-01-16T04:02:24;95513.88;;;4.26;89.19
39363;BME280;25088;43.238;23.110;2024-01-16T04:04:49;95517.19;;;4.28;88.90
39363;BME280;25088;43.238;23.110;2024-01-16T04:07:15;95516.84;;;4.24;89.01
39363;BME280;25088;43.238;23.110;2024-01-16T04:09:42;95524.78;;;4.31;88.86
39363;BME280;25088;43.238;23.110;2024-01-16T04:12:08;95503.50;;;4.06;89.14
39363;BME280;25088;43.238;23.110;2024-01-16T04:14:34;95539.25;;;4.25;90.12
39363;BME280;25088;43.238;23.110;2024-01-16T04:16:59;95543.03;;;4.24;90.43
39363;BME280;25088;43.238;23.110;2024-01-16T04:19:25;95550.88;;;4.25;89.68
39363;BME280;25088;43.238;23.110;2024-01-16T04:21:50;95554.66;;;4.12;91.07
39363;BME280;25088;43.238;23.110;2024-01-16T04:24:16;95570.31;;;4.10;91.69
39363;BME280;25088;43.238;23.110;2024-01-16T04:26:41;95576.53;;;4.11;91.36
39363;BME280;25088;43.238;23.110;2024-01-16T04:29:07;95551.81;;;3.91;92.73
39363;BME280;25088;43.238;23.110;2024-01-16T04:31:39;95585.66;;;4.22;91.72
39363;BME280;25088;43.238;23.110;2024-01-16T04:34:06;95591.91;;;4.10;93.05
39363;BME280;25088;43.238;23.110;2024-01-16T04:36:32;95594.53;;;3.94;94.74
39363;BME280;25088;43.238;23.110;2024-01-16T04:38:57;95601.44;;;3.78;95.60
39363;BME280;25088;43.238;23.110;2024-01-16T04:41:23;95595.25;;;3.77;95.68
39363;BME280;25088;43.238;23.110;2024-01-16T04:43:48;95612.72;;;3.86;96.31
39363;BME280;25088;43.238;23.110;2024-01-16T04:46:15;95613.31;;;4.00;95.49
39363;BME280;25088;43.238;23.110;2024-01-16T04:48:42;95624.69;;;4.14;94.04
39363;BME280;25088;43.238;23.110;2024-01-16T04:51:07;95615.72;;;4.25;93.34
39363;BME280;25088;43.238;23.110;2024-01-16T04:53:33;95612.34;;;4.18;92.96
39363;BME280;25088;43.238;23.110;2024-01-16T04:55:59;95633.25;;;4.23;93.32
39363;BME280;25088;43.238;23.110;2024-01-16T04:58:24;95631.84;;;4.20;94.18
39363;BME280;25088;43.238;23.110;2024-01-16T05:00:50;95642.03;;;4.30;93.45
39363;BME280;25088;43.238;23.110;2024-01-16T05:03:15;95648.38;;;4.12;94.31
39363;BME280;25088;43.238;23.110;2024-01-16T05:05:41;95666.50;;;4.23;94.67
39363;BME280;25088;43.238;23.110;2024-01-16T05:08:06;95672.50;;;4.13;94.82
39363;BME280;25088;43.238;23.110;2024-01-16T05:10:32;95666.50;;;4.00;96.72
39363;BME280;25088;43.238;23.110;2024-01-16T05:12:58;95679.06;;;3.94;96.97
39363;BME280;25088;43.238;23.110;2024-01-16T05:15:23;95683.88;;;3.92;95.82
39363;BME280;25088;43.238;23.110;2024-01-16T05:17:49;95703.59;;;4.04;93.15
39363;BME280;25088;43.238;23.110;2024-01-16T05:20:14;95711.44;;;4.18;90.80
39363;BME280;25088;43.238;23.110;2024-01-16T05:22:39;95702.31;;;4.07;85.64
39363;BME280;25088;43.238;23.110;2024-01-16T05:25:05;95716.03;;;4.17;86.89
39363;BME280;25088;43.238;23.110;2024-01-16T05:27:33;95703.72;;;4.21;89.36
39363;BME280;25088;43.238;23.110;2024-01-16T05:29:58;95702.88;;;4.32;87.09
39363;BME280;25088;43.238;23.110;2024-01-16T05:32:24;95697.13;;;4.29;87.53
39363;BME280;25088;43.238;23.110;2024-01-16T05:34:50;95724.16;;;4.29;85.54
39363;BME280;25088;43.238;23.110;2024-01-16T05:37:15;95713.69;;;4.21;86.74
39363;BME280;25088;43.238;23.110;2024-01-16T05:39:41;95722.28;;;4.29;86.47
39363;BME280;25088;43.238;23.110;2024-01-16T05:42:06;95735.75;;;4.41;86.02
39363;BME280;25088;43.238;23.110;2024-01-16T05:44:32;95742.69;;;4.49;79.76
39363;BME280;25088;43.238;23.110;2024-01-16T05:46:57;95753.84;;;4.52;79.65
39363;BME280;25088;43.238;23.110;2024-01-16T05:49:23;95753.63;;;4.54;83.96
39363;BME280;25088;43.238;23.110;2024-01-16T05:51:48;95759.13;;;4.47;86.26
39363;BME280;25088;43.238;23.110;2024-01-16T05:54:14;95742.00;;;4.30;85.75
39363;BME280;25088;43.238;23.110;2024-01-16T05:56:39;95773.72;;;4.34;80.57
39363;BME280;25088;43.238;23.110;2024-01-16T05:59:05;95785.13;;;4.25;81.42
39363;BME280;25088;43.238;23.110;2024-01-16T06:01:30;95781.94;;;4.16;81.33
39363;BME280;25088;43.238;23.110;2024-01-16T06:03:56;95785.94;;;4.37;81.08
39363;BME280;25088;43.238;23.110;2024-01-16T06:06:21;95784.91;;;4.38;82.55
39363;BME280;25088;43.238;23.110;2024-01-16T06:08:47;95780.53;;;4.37;83.97
39363;BME280;25088;43.238;23.110;2024-01-16T06:11:12;95787.81;;;4.36;84.36
39363;BME280;25088;43.238;23.110;2024-01-16T06:13:39;95794.63;;;4.51;84.45
39363;BME280;25088;43.238;23.110;2024-01-16T06:16:07;95797.34;;;4.62;83.77
39363;BME280;25088;43.238;23.110;2024-01-16T06:18:36;95828.84;;;4.69;81.27
39363;BME280;25088;43.238;23.110;2024-01-16T06:21:03;95836.22;;;4.61;81.32
39363;BME280;25088;43.238;23.110;2024-01-16T06:23:29;95837.16;;;4.67;81.25
39363;BME280;25088;43.238;23.110;2024-01-16T06:25:55;95844.34;;;4.61;80.72
39363;BME280;25088;43.238;23.110;2024-01-16T06:28:20;95827.06;;;4.51;79.95
39363;BME280;25088;43.238;23.110;2024-01-16T06:30:46;95842.34;;;4.57;79.37
39363;BME280;25088;43.238;23.110;2024-01-16T06:33:11;95855.38;;;4.72;78.32
39363;BME280;25088;43.238;23.110;2024-01-16T06:35:36;95871.50;;;4.66;74.21
39363;BME280;25088;43.238;23.110;2024-01-16T06:38:02;95865.84;;;4.56;70.43
39363;BME280;25088;43.238;23.110;2024-01-16T06:40:27;95876.00;;;4.73;70.46
39363;BME280;25088;43.238;23.110;2024-01-16T06:42:53;95882.53;;;4.77;70.77
39363;BME280;25088;43.238;23.110;2024-01-16T06:45:18;95878.31;;;4.81;70.42
39363;BME280;25088;43.238;23.110;2024-01-16T06:47:44;95891.97;;;4.86;68.78
39363;BME280;25088;43.238;23.110;2024-01-16T06:50:10;95883.50;;;4.71;63.63
39363;BME280;25088;43.238;23.110;2024-01-16T06:52:35;95905.59;;;4.91;63.80
39363;BME280;25088;43.238;23.110;2024-01-16T06:55:01;95894.09;;;4.84;66.02
39363;BME280;25088;43.238;23.110;2024-01-16T06:57:26;95886.44;;;4.92;69.01
39363;BME280;25088;43.238;23.110;2024-01-16T06:59:52;95909.47;;;5.07;68.68
39363;BME280;25088;43.238;23.110;2024-01-16T07:02:18;95920.53;;;5.05;67.35
39363;BME280;25088;43.238;23.110;2024-01-16T07:04:43;95919.81;;;4.86;60.95
39363;BME280;25088;43.238;23.110;2024-01-16T07:07:09;95935.22;;;4.62;49.93
39363;BME280;25088;43.238;23.110;2024-01-16T07:09:34;95938.41;;;4.95;47.64
39363;BME280;25088;43.238;23.110;2024-01-16T07:11:59;95956.28;;;4.96;54.77
39363;BME280;25088;43.238;23.110;2024-01-16T07:14:25;95961.00;;;5.12;56.50
39363;BME280;25088;43.238;23.110;2024-01-16T07:16:50;95967.25;;;5.12;45.21
39363;BME280;25088;43.238;23.110;2024-01-16T07:19:16;95970.31;;;5.28;44.55
39363;BME280;25088;43.238;23.110;2024-01-16T07:21:41;95969.09;;;5.35;45.32
39363;BME280;25088;43.238;23.110;2024-01-16T07:24:07;95981.91;;;5.52;46.11
39363;BME280;25088;43.238;23.110;2024-01-16T07:26:33;95986.88;;;5.43;47.25
39363;BME280;25088;43.238;23.110;2024-01-16T07:28:59;95982.66;;;5.47;46.06
39363;BME280;25088;43.238;23.110;2024-01-16T07:31:25;95988.16;;;5.40;43.58
39363;BME280;25088;43.238;23.110;2024-01-16T07:33:51;95967.56;;;5.51;45.17
39363;BME280;25088;43.238;23.110;2024-01-16T07:36:16;95971.91;;;5.64;44.03
39363;BME280;25088;43.238;23.110;2024-01-16T07:38:42;95982.13;;;5.74;43.81
39363;BME280;25088;43.238;23.110;2024-01-16T07:41:07;95989.50;;;5.90;45.56
39363;BME280;25088;43.238;23.110;2024-01-16T07:43:33;95992.84;;;5.80;45.22
39363;BME280;25088;43.238;23.110;2024-01-16T07:45:59;95995.34;;;5.58;46.93
39363;BME280;25088;43.238;23.110;2024-01-16T07:48:25;96025.34;;;5.57;46.45
39363;BME280;25088;43.238;23.110;2024-01-16T07:50:50;96034.44;;;5.62;45.75
39363;BME280;25088;43.238;23.110;2024-01-16T07:53:16;96038.66;;;5.93;46.85
39363;BME280;25088;43.238;23.110;2024-01-16T07:55:42;96038.25;;;6.13;48.98
39363;BME280;25088;43.238;23.110;2024-01-16T07:58:11;96042.06;;;6.41;47.38
39363;BME280;25088;43.238;23.110;2024-01-16T08:00:37;96056.00;;;6.33;44.42
39363;BME280;25088;43.238;23.110;2024-01-16T08:03:02;96048.78;;;5.98;41.83
39363;BME280;25088;43.238;23.110;2024-01-16T08:05:28;96052.59;;;6.26;43.61
39363;BME280;25088;43.238;23.110;2024-01-16T08:07:56;96059.03;;;6.36;42.94
39363;BME280;25088;43.238;23.110;2024-01-16T08:10:21;96016.13;;;6.05;42.35
39363;BME280;25088;43.238;23.110;2024-01-16T08:12:47;96055.41;;;6.31;44.39
39363;BME280;25088;43.238;23.110;2024-01-16T08:15:13;96069.22;;;6.29;42.04
39363;BME280;25088;43.238;23.110;2024-01-16T08:17:38;96078.81;;;6.08;45.79
39363;BME280;25088;43.238;23.110;2024-01-16T08:20:05;96064.53;;;6.13;45.75
39363;BME280;25088;43.238;23.110;2024-01-16T08:22:31;96080.41;;;6.33;43.86
39363;BME280;25088;43.238;23.110;2024-01-16T08:24:56;96081.19;;;6.45;44.76
39363;BME280;25088;43.238;23.110;2024-01-16T08:27:22;96079.69;;;6.37;41.06
39363;BME280;25088;43.238;23.110;2024-01-16T08:29:47;96084.03;;;6.38;40.74
39363;BME280;25088;43.238;23.110;2024-01-16T08:32:16;96094.47;;;6.58;40.43
39363;BME280;25088;43.238;23.110;2024-01-16T08:34:41;96092.88;;;6.74;39.69
39363;BME280;25088;43.238;23.110;2024-01-16T08:37:07;96090.59;;;6.83;41.32
39363;BME280;25088;43.238;23.110;2024-01-16T08:39:32;96098.22;;;6.97;41.21
39363;BME280;25088;43.238;23.110;2024-01-16T08:41:59;96104.16;;;7.11;44.71
39363;BME280;25088;43.238;23.110;2024-01-16T08:44:27;96110.59;;;7.22;41.94
39363;BME280;25088;43.238;23.110;2024-01-16T08:46:52;96093.31;;;7.11;42.96
39363;BME280;25088;43.238;23.110;2024-01-16T08:49:18;96113.22;;;7.17;41.53
39363;BME280;25088;43.238;23.110;2024-01-16T08:51:44;96111.97;;;6.79;39.57
39363;BME280;25088;43.238;23.110;2024-01-16T08:54:12;96109.78;;;6.64;40.55
39363;BME280;25088;43.238;23.110;2024-01-16T08:56:37;96119.34;;;6.67;39.91
39363;BME280;25088;43.238;23.110;2024-01-16T08:59:03;96113.97;;;6.43;40.41
39363;BME280;25088;43.238;23.110;2024-01-16T09:01:28;96118.31;;;6.44;41.27
39363;BME280;25088;43.238;23.110;2024-01-16T09:03:53;96095.97;;;6.66;41.23
39363;BME280;25088;43.238;23.110;2024-01-16T09:06:19;96124.03;;;7.00;41.04
39363;BME280;25088;43.238;23.110;2024-01-16T09:08:44;96126.38;;;7.25;40.78
39363;BME280;25088;43.238;23.110;2024-01-16T09:11:10;96130.69;;;7.38;40.01
39363;BME280;25088;43.238;23.110;2024-01-16T09:13:37;96104.38;;;7.10;39.72
39363;BME280;25088;43.238;23.110;2024-01-16T09:16:03;96107.47;;;7.30;38.29
39363;BME280;25088;43.238;23.110;2024-01-16T09:18:28;96115.88;;;7.45;40.28
39363;BME280;25088;43.238;23.110;2024-01-16T09:20:54;96095.56;;;7.48;37.57
39363;BME280;25088;43.238;23.110;2024-01-16T09:23:20;96099.31;;;7.81;37.98
39363;BME280;25088;43.238;23.110;2024-01-16T09:25:45;96106.56;;;7.92;38.14
39363;BME280;25088;43.238;23.110;2024-01-16T09:28:11;96115.34;;;7.99;37.95
39363;BME280;25088;43.238;23.110;2024-01-16T09:30:37;96097.22;;;8.04;37.40
39363;BME280;25088;43.238;23.110;2024-01-16T09:33:03;96116.47;;;8.20;37.84
39363;BME280;25088;43.238;23.110;2024-01-16T09:35:32;96104.31;;;8.06;38.33
39363;BME280;25088;43.238;23.110;2024-01-16T09:37:57;96109.66;;;8.17;37.47
39363;BME280;25088;43.238;23.110;2024-01-16T09:40:25;96116.66;;;8.35;36.86
39363;BME280;25088;43.238;23.110;2024-01-16T09:42:50;96111.50;;;8.34;37.80
39363;BME280;25088;43.238;23.110;2024-01-16T09:45:20;96110.53;;;8.62;37.79
39363;BME280;25088;43.238;23.110;2024-01-16T09:47:49;96120.00;;;8.59;36.12
39363;BME280;25088;43.238;23.110;2024-01-16T09:50:15;96119.69;;;8.77;35.57
39363;BME280;25088;43.238;23.110;2024-01-16T09:52:43;96116.88;;;8.94;36.89
39363;BME280;25088;43.238;23.110;2024-01-16T09:55:08;96110.22;;;9.07;36.27
39363;BME280;25088;43.238;23.110;2024-01-16T09:57:35;96111.78;;;9.25;36.22
39363;BME280;25088;43.238;23.110;2024-01-16T10:00:04;96110.13;;;9.24;34.38
39363;BME280;25088;43.238;23.110;2024-01-16T10:02:30;96101.38;;;9.22;35.54
39363;BME280;25088;43.238;23.110;2024-01-16T10:04:56;96119.16;;;9.29;36.21
39363;BME280;25088;43.238;23.110;2024-01-16T10:07:23;96102.53;;;9.26;35.92
39363;BME280;25088;43.238;23.110;2024-01-16T10:09:56;96099.28;;;9.61;34.87
39363;BME280;25088;43.238;23.110;2024-01-16T10:12:22;96080.78;;;9.63;34.77
39363;BME280;25088;43.238;23.110;2024-01-16T10:14:48;96106.28;;;9.84;34.95
39363;BME280;25088;43.238;23.110;2024-01-16T10:17:17;96109.84;;;9.84;35.38
39363;BME280;25088;43.238;23.110;2024-01-16T10:19:51;96111.56;;;9.64;34.65
39363;BME280;25088;43.238;23.110;2024-01-16T10:22:21;96106.53;;;9.45;34.85
39363;BME280;25088;43.238;23.110;2024-01-16T10:24:48;96107.75;;;9.32;35.58
39363;BME280;25088;43.238;23.110;2024-01-16T10:27:15;96121.63;;;9.31;35.19
39363;BME280;25088;43.238;23.110;2024-01-16T10:29:55;96120.06;;;9.35;35.51
39363;BME280;25088;43.238;23.110;2024-01-16T10:32:37;96131.09;;;9.23;35.77
39363;BME280;25088;43.238;23.110;2024-01-16T10:37:53;96142.31;;;9.27;35.36
39363;BME280;25088;43.238;23.110;2024-01-16T10:40:25;96133.41;;;9.37;35.46
39363;BME280;25088;43.238;23.110;2024-01-16T10:43:03;96127.06;;;9.58;34.22
39363;BME280;25088;43.238;23.110;2024-01-16T10:45:29;96127.31;;;9.56;34.34
39363;BME280;25088;43.238;23.110;2024-01-16T10:48:06;96121.88;;;9.56;35.32
39363;BME280;25088;43.238;23.110;2024-01-16T10:50:33;96129.75;;;9.53;34.84
39363;BME280;25088;43.238;23.110;2024-01-16T10:53:00;96130.38;;;9.60;35.34
39363;BME280;25088;43.238;23.110;2024-01-16T10:55:29;96130.00;;;9.24;37.91
39363;BME280;25088;43.238;23.110;2024-01-16T10:57:56;96127.72;;;8.89;39.79
39363;BME280;25088;43.238;23.110;2024-01-16T11:00:22;96122.03;;;8.91;39.56
39363;BME280;25088;43.238;23.110;2024-01-16T11:02:59;96134.25;;;9.10;39.63
39363;BME280;25088;43.238;23.110;2024-01-16T11:05:27;96137.66;;;9.00;40.26
39363;BME280;25088;43.238;23.110;2024-01-16T11:07:55;96142.47;;;8.93;39.60
39363;BME280;25088;43.238;23.110;2024-01-16T11:10:22;96152.03;;;8.96;40.80
39363;BME280;25088;43.238;23.110;2024-01-16T11:12:51;96138.16;;;8.97;40.68
39363;BME280;25088;43.238;23.110;2024-01-16T11:15:18;96148.34;;;9.07;39.69
39363;BME280;25088;43.238;23.110;2024-01-16T11:17:44;96142.81;;;9.24;40.07
39363;BME280;25088;43.238;23.110;2024-01-16T11:20:11;96158.09;;;9.25;40.44
39363;BME280;25088;43.238;23.110;2024-01-16T11:22:41;96164.47;;;9.14;40.16
39363;BME280;25088;43.238;23.110;2024-01-16T11:25:17;96159.34;;;9.17;40.46
39363;BME280;25088;43.238;23.110;2024-01-16T11:27:45;96162.34;;;8.94;41.12
39363;BME280;25088;43.238;23.110;2024-01-16T11:30:29;96178.19;;;8.97;41.92
39363;BME280;25088;43.238;23.110;2024-01-16T11:32:55;96180.66;;;8.76;41.95
39363;BME280;25088;43.238;23.110;2024-01-16T11:35:35;96177.81;;;8.66;43.01
39363;BME280;25088;43.238;23.110;2024-01-16T11:38:16;96168.13;;;8.75;42.90
39363;BME280;25088;43.238;23.110;2024-01-16T11:40:41;96170.31;;;8.78;42.53
39363;BME280;25088;43.238;23.110;2024-01-16T11:43:39;96184.47;;;8.75;43.20
39363;BME280;25088;43.238;23.110;2024-01-16T11:46:08;96190.94;;;8.74;43.42
39363;BME280;25088;43.238;23.110;2024-01-16T11:48:34;96200.13;;;8.68;43.38
39363;BME280;25088;43.238;23.110;2024-01-16T11:51:00;96200.78;;;8.75;43.45
39363;BME280;25088;43.238;23.110;2024-01-16T11:53:45;96205.91;;;8.72;43.17
39363;BME280;25088;43.238;23.110;2024-01-16T11:56:35;96209.09;;;8.86;43.63
39363;BME280;25088;43.238;23.110;2024-01-16T11:59:26;96213.44;;;8.87;44.35
39363;BME280;25088;43.238;23.110;2024-01-16T12:01:58;96215.16;;;8.71;43.98
39363;BME280;25088;43.238;23.110;2024-01-16T12:04:24;96221.19;;;8.56;43.58
39363;BME280;25088;43.238;23.110;2024-01-16T12:07:00;96212.84;;;8.63;43.66
39363;BME280;25088;43.238;23.110;2024-01-16T12:09:26;96194.28;;;8.38;43.89
39363;BME280;25088;43.238;23.110;2024-01-16T12:12:00;96231.16;;;8.67;44.16
39363;BME280;25088;43.238;23.110;2024-01-16T12:14:29;96224.22;;;8.60;43.70
39363;BME280;25088;43.238;23.110;2024-01-16T12:17:11;96212.78;;;8.58;43.85
39363;BME280;25088;43.238;23.110;2024-01-16T12:19:37;96214.59;;;8.91;43.73
39363;BME280;25088;43.238;23.110;2024-01-16T12:22:05;96210.41;;;8.83;43.66
39363;BME280;25088;43.238;23.110;2024-01-16T12:24:33;96209.38;;;8.67;44.78
39363;BME280;25088;43.238;23.110;2024-01-16T12:26:58;96212.66;;;8.69;44.67
39363;BME280;25088;43.238;23.110;2024-01-16T12:29:24;96214.25;;;9.09;43.62
39363;BME280;25088;43.238;23.110;2024-01-16T12:31:49;96192.75;;;9.89;42.48
39363;BME280;25088;43.238;23.110;2024-01-16T12:34:15;96183.81;;;10.25;41.47
39363;BME280;25088;43.238;23.110;2024-01-16T12:36:40;96201.63;;;10.38;42.07
39363;BME280;25088;43.238;23.110;2024-01-16T12:39:06;96206.75;;;10.29;41.15
39363;BME280;25088;43.238;23.110;2024-01-16T12:41:41;96212.06;;;9.82;41.74
39363;BME280;25088;43.238;23.110;2024-01-16T12:44:08;96220.22;;;9.82;42.26
39363;BME280;25088;43.238;23.110;2024-01-16T12:46:33;96197.00;;;10.06;41.35
39363;BME280;25088;43.238;23.110;2024-01-16T12:49:02;96203.25;;;10.39;40.52
39363;BME280;25088;43.238;23.110;2024-01-16T12:51:28;96211.16;;;10.83;40.18
39363;BME280;25088;43.238;23.110;2024-01-16T12:53:53;96211.22;;;11.76;38.92
39363;BME280;25088;43.238;23.110;2024-01-16T12:56:19;96211.16;;;13.14;37.48
39363;BME280;25088;43.238;23.110;2024-01-16T12:58:46;96206.25;;;14.10;35.07
39363;BME280;25088;43.238;23.110;2024-01-16T13:01:25;96207.66;;;14.99;34.42